createdAt,value
2023-01-13T01:17:16.962Z,101923.06
2023-01-13T01:19:46.362Z,101912.06
2023-01-13T01:22:15.649Z,101913.16
2023-01-13T01:24:44.859Z,101930.81
2023-01-13T01:27:14.025Z,101921.94
2023-01-13T01:29:43.189Z,101915.56
2023-01-13T01:32:12.383Z,101916.63
2023-01-13T01:34:43.114Z,101913.53
2023-01-13T01:37:12.377Z,101918.63
2023-01-13T01:39:43.379Z,101912.72
2023-01-13T01:42:35.362Z,101884.25
2023-01-13T01:45:12.553Z,101904.09
2023-01-13T01:47:42.930Z,101896.78
2023-01-13T01:50:14.360Z,101899.63
2023-01-13T01:52:46.607Z,101906.88
2023-01-13T01:55:19.136Z,101889.22
2023-01-13T01:57:53.515Z,101878.66
2023-01-13T02:00:23.116Z,101910.38
2023-01-13T02:02:53.536Z,101913.31
2023-01-13T02:05:24.382Z,101880.50
2023-01-13T02:07:56.472Z,101899.34
2023-01-13T02:10:28.757Z,101902.25
2023-01-13T02:12:59.387Z,101898.84
2023-01-13T02:15:35.798Z,101910.81
2023-01-13T02:18:21.340Z,101902.03
2023-01-13T02:21:16.501Z,101904.81
2023-01-13T02:24:20.126Z,101909.66
2023-01-13T02:27:17.439Z,101903.84
2023-01-13T02:30:35.093Z,101920.84
2023-01-13T02:33:15.349Z,101906.09
2023-01-13T02:35:52.618Z,101913.72
2023-01-13T02:38:27.298Z,101903.31
2023-01-13T02:41:20.349Z,101912.47
2023-01-13T02:44:09.489Z,101896.72
2023-01-13T02:46:47.558Z,101891.63
2023-01-13T02:49:26.101Z,101838.72
2023-01-13T02:52:00.808Z,101915.25
2023-01-13T02:54:32.659Z,101910.44
2023-01-13T02:57:04.547Z,101897.94
2023-01-13T02:59:34.634Z,101899.84
2023-01-13T03:02:09.101Z,101893.13
2023-01-13T03:04:50.468Z,101895.41
2023-01-13T03:07:53.728Z,101895.53
2023-01-13T03:10:33.760Z,101884.19
2023-01-13T03:13:14.943Z,101882.69
2023-01-13T03:15:52.597Z,101902.03
2023-01-13T03:18:34.420Z,101886.75
2023-01-13T03:21:08.452Z,101874.81
2023-01-13T03:23:45.242Z,101886.59
2023-01-13T03:26:19.084Z,101859.53
2023-01-13T03:28:54.470Z,101887.22
2023-01-13T03:31:27.685Z,101890.28
2023-01-13T03:34:02.231Z,101901.06
2023-01-13T03:36:35.222Z,101876.41
2023-01-13T03:39:11.748Z,101882.59
2023-01-13T03:41:48.123Z,101872.41
2023-01-13T03:44:27.783Z,101862.75
2023-01-13T03:47:05.643Z,101804.66
2023-01-13T03:49:40.764Z,101838.44
2023-01-13T03:52:14.638Z,101858.22
2023-01-13T03:54:50.159Z,101865.94
2023-01-13T03:57:22.039Z,101869.63
2023-01-13T03:59:54.181Z,101811.03
2023-01-13T04:02:34.791Z,101865.94
2023-01-13T04:05:10.113Z,101865.09
2023-01-13T04:07:52.700Z,101886.63
2023-01-13T04:10:26.650Z,101876.56
2023-01-13T04:13:04.679Z,101877.97
2023-01-13T04:15:38.375Z,101874.94
2023-01-13T04:18:16.445Z,101877.75
2023-01-13T04:20:49.327Z,101864.19
2023-01-13T04:23:19.015Z,101887.69
2023-01-13T04:25:48.874Z,101882.59
2023-01-13T04:28:18.655Z,101890.13
2023-01-13T04:30:48.398Z,101903.59
2023-01-13T04:33:19.093Z,101891.25
2023-01-13T04:35:49.977Z,101899.38
2023-01-13T04:38:21.712Z,101886.03
2023-01-13T04:40:50.916Z,101885.16
2023-01-13T04:43:20.110Z,101900.16
2023-01-13T04:45:49.314Z,101887.66
2023-01-13T04:48:18.464Z,101886.13
2023-01-13T04:50:49.247Z,101879.38
2023-01-13T04:53:18.413Z,101886.94
2023-01-13T04:55:48.323Z,101886.53
2023-01-13T04:58:17.502Z,101891.88
2023-01-13T05:00:46.616Z,101891.97
2023-01-13T05:03:16.183Z,101896.06
2023-01-13T05:05:45.376Z,101895.66
2023-01-13T05:08:16.063Z,101886.38
2023-01-13T05:10:45.172Z,101892.13
2023-01-13T05:13:31.112Z,101887.53
2023-01-13T05:16:31.657Z,101883.75
2023-01-13T05:19:00.876Z,101892.09
2023-01-13T05:21:47.097Z,101887.09
2023-01-13T05:24:49.323Z,101891.75
2023-01-13T05:27:18.417Z,101889.47
2023-01-13T05:29:47.623Z,101882.94
2023-01-13T05:32:16.824Z,101866.25
2023-01-13T05:34:46.077Z,101885.94
2023-01-13T05:37:15.279Z,101863.19
2023-01-13T05:40:03.233Z,101877.84
2023-01-13T05:42:49.111Z,101863.88
2023-01-13T05:45:18.401Z,101862.88
2023-01-13T05:47:47.482Z,101867.25
2023-01-13T05:50:16.917Z,101867.56
2023-01-13T05:52:46.149Z,101862.69
2023-01-13T05:55:17.016Z,101848.50
2023-01-13T05:57:46.130Z,101867.06
2023-01-13T06:00:16.381Z,101864.78
2023-01-13T06:02:45.629Z,101861.66
2023-01-13T06:05:14.877Z,101864.75
2023-01-13T06:07:44.039Z,101859.19
2023-01-13T06:10:14.149Z,101845.66
2023-01-13T06:12:44.983Z,101846.97
2023-01-13T06:15:14.144Z,101830.09
2023-01-13T06:17:43.286Z,101862.75
2023-01-13T06:20:13.455Z,101859.75
2023-01-13T06:22:44.694Z,101869.44
2023-01-13T06:25:20.991Z,101849.81
2023-01-13T06:27:52.737Z,101860.56
2023-01-13T06:30:23.738Z,101859.47
2023-01-13T06:33:03.289Z,101870.78
2023-01-13T06:35:37.451Z,101864.59
2023-01-13T06:38:12.910Z,101864.22
2023-01-13T06:40:44.259Z,101802.53
2023-01-13T06:43:17.205Z,101870.00
2023-01-13T06:45:51.332Z,101841.97
2023-01-13T06:48:21.983Z,101866.91
2023-01-13T06:50:51.221Z,101848.59
2023-01-13T06:53:20.334Z,101836.28
2023-01-13T06:55:49.455Z,101869.78
2023-01-13T06:58:20.103Z,101867.25
2023-01-13T07:00:56.368Z,101844.94
2023-01-13T07:03:25.554Z,101866.63
2023-01-13T07:05:56.521Z,101866.94
2023-01-13T07:08:26.861Z,101866.59
2023-01-13T07:10:56.689Z,101831.94
2023-01-13T07:13:44.833Z,101873.25
2023-01-13T07:16:14.180Z,101830.13
2023-01-13T07:18:43.357Z,101835.25
2023-01-13T07:21:19.168Z,101855.78
2023-01-13T07:23:49.991Z,101864.00
2023-01-13T07:26:19.456Z,101794.44
2023-01-13T07:28:50.074Z,101869.00
2023-01-13T07:31:22.845Z,101797.75
2023-01-13T07:33:52.135Z,101837.28
2023-01-13T07:36:21.494Z,101805.22
2023-01-13T07:38:51.611Z,101833.06
2023-01-13T07:41:39.311Z,101816.41
2023-01-13T07:44:11.319Z,101835.97
2023-01-13T07:46:41.023Z,101853.06
2023-01-13T07:49:10.960Z,101857.16
2023-01-13T07:51:41.097Z,101714.41
2023-01-13T07:54:12.755Z,101701.78
2023-01-13T07:56:42.135Z,101817.50
2023-01-13T07:59:13.193Z,101854.81
2023-01-13T08:01:42.405Z,101875.13
2023-01-13T08:04:11.691Z,101873.25
2023-01-13T08:06:42.400Z,101866.81
2023-01-13T08:09:12.707Z,101852.94
2023-01-13T08:11:41.885Z,101852.63
2023-01-13T08:14:13.133Z,101859.28
2023-01-13T08:16:42.323Z,101873.56
2023-01-13T08:19:11.465Z,101867.22
2023-01-13T08:21:40.611Z,101882.13
2023-01-13T08:24:12.668Z,101830.50
2023-01-13T08:26:41.826Z,101883.47
2023-01-13T08:29:15.051Z,101870.59
2023-01-13T08:31:44.498Z,101859.28
2023-01-13T08:34:13.679Z,101850.19
2023-01-13T08:36:42.851Z,101887.38
2023-01-13T08:39:12.128Z,101869.69
2023-01-13T08:41:59.525Z,101868.56
2023-01-13T08:44:32.071Z,101878.25
2023-01-13T08:47:01.497Z,101863.47
2023-01-13T08:49:30.667Z,101894.72
2023-01-13T08:51:59.809Z,101900.69
2023-01-13T08:54:29.148Z,101885.25
2023-01-13T08:56:58.346Z,101887.59
2023-01-13T08:59:29.591Z,101863.50
2023-01-13T09:01:59.562Z,101872.13
2023-01-13T09:04:30.557Z,101885.09
2023-01-13T09:06:59.811Z,101891.56
2023-01-13T09:09:29.016Z,101892.25
2023-01-13T09:12:15.369Z,101888.91
2023-01-13T09:14:46.220Z,101906.22
2023-01-13T09:17:15.643Z,101875.78
2023-01-13T09:19:45.116Z,101904.22
2023-01-13T09:22:18.112Z,101923.41
2023-01-13T09:24:47.686Z,101914.66
2023-01-13T09:27:17.711Z,101910.78
2023-01-13T09:29:48.414Z,101916.22
2023-01-13T09:32:17.684Z,101930.78
2023-01-13T09:35:00.699Z,101910.88
2023-01-13T09:37:30.797Z,101901.19
2023-01-13T09:39:59.902Z,101918.53
2023-01-13T09:42:59.610Z,101922.94
2023-01-13T09:45:35.013Z,101865.59
2023-01-13T09:48:12.455Z,101942.25
2023-01-13T09:50:56.782Z,101947.88
2023-01-13T09:53:30.677Z,101936.38
2023-01-13T09:55:59.879Z,101956.72
2023-01-13T09:58:29.670Z,101951.16
2023-01-13T10:01:19.291Z,101961.25
2023-01-13T10:03:49.756Z,101965.34
2023-01-13T10:06:23.517Z,101955.19
2023-01-13T10:08:53.021Z,101954.88
2023-01-13T10:11:41.343Z,101966.06
2023-01-13T10:14:18.278Z,101971.81
2023-01-13T10:16:54.033Z,101913.63
2023-01-13T10:19:28.113Z,101947.53
2023-01-13T10:22:23.976Z,101965.31
2023-01-13T10:25:08.882Z,101823.91
2023-01-13T10:27:39.439Z,101998.16
2023-01-13T10:30:22.436Z,101981.06
2023-01-13T10:32:57.679Z,101815.44
2023-01-13T10:35:52.705Z,101984.63
2023-01-13T10:38:24.162Z,101812.09
2023-01-13T10:40:55.060Z,101999.94
2023-01-13T10:43:25.192Z,101861.91
2023-01-13T10:46:06.452Z,101963.69
2023-01-13T10:48:40.702Z,101924.69
2023-01-13T10:51:28.314Z,101825.16
2023-01-13T10:54:01.780Z,101967.16
2023-01-13T10:56:34.100Z,101801.97
2023-01-13T10:59:17.680Z,101804.19
2023-01-13T11:02:05.697Z,101819.53
2023-01-13T11:04:44.566Z,101977.69
2023-01-13T11:07:23.246Z,102000.00
2023-01-13T11:10:12.471Z,101952.19
2023-01-13T11:12:52.580Z,101877.47
2023-01-13T11:15:27.159Z,101799.06
2023-01-13T11:18:05.581Z,101914.34
2023-01-13T11:20:41.873Z,101859.69
2023-01-13T11:23:18.717Z,101993.00
2023-01-13T11:25:52.630Z,101955.09
2023-01-13T11:28:39.495Z,101967.09
2023-01-13T11:31:17.037Z,101844.66
2023-01-13T11:33:53.207Z,101866.75
2023-01-13T11:36:27.733Z,101828.97
2023-01-13T11:38:58.638Z,102013.63
2023-01-13T11:41:40.568Z,102017.34
2023-01-13T11:44:19.618Z,101990.47
2023-01-13T11:46:52.070Z,101905.94
2023-01-13T11:49:26.706Z,101851.06
2023-01-13T11:52:06.370Z,101996.44
2023-01-13T11:54:54.636Z,102020.84
2023-01-13T11:58:05.675Z,101954.75
2023-01-13T12:01:04.700Z,101975.56
2023-01-13T12:03:38.886Z,101884.06
2023-01-13T12:06:23.981Z,102028.56
2023-01-13T12:09:12.444Z,101798.50
2023-01-13T12:12:10.618Z,101880.84
2023-01-13T12:14:50.410Z,102037.09
2023-01-13T12:17:29.980Z,101862.78
2023-01-13T12:19:59.900Z,101920.88
2023-01-13T12:22:35.369Z,101979.31
2023-01-13T12:25:15.347Z,102066.81
2023-01-13T12:27:48.139Z,101990.47
2023-01-13T12:30:27.331Z,101959.44
2023-01-13T12:33:02.063Z,101842.72
2023-01-13T12:35:40.816Z,101989.31
2023-01-13T12:38:16.819Z,101978.56
2023-01-13T12:40:56.207Z,101861.81
2023-01-13T12:43:43.579Z,101809.47
2023-01-13T12:46:47.212Z,102060.09
2023-01-13T12:49:35.076Z,102070.91
2023-01-13T12:52:17.802Z,102069.88
2023-01-13T12:55:14.984Z,102059.72
2023-01-13T12:58:14.827Z,102030.81
2023-01-13T13:01:00.783Z,102054.63
2023-01-13T13:03:33.767Z,102063.38
2023-01-13T13:06:14.637Z,102068.63
2023-01-13T13:08:55.082Z,102051.91
2023-01-13T13:11:59.443Z,102067.97
2023-01-13T13:15:04.767Z,102051.16
2023-01-13T13:18:01.924Z,102070.38
2023-01-13T13:20:57.628Z,102065.81
2023-01-13T13:24:03.394Z,102090.78
2023-01-13T13:26:37.988Z,102079.56
2023-01-13T13:29:43.669Z,102078.81
2023-01-13T13:32:48.435Z,102066.09
2023-01-13T13:35:37.999Z,102057.41
2023-01-13T13:38:37.457Z,102072.69
2023-01-13T13:41:32.675Z,102069.88
2023-01-13T13:44:19.371Z,102069.13
2023-01-13T13:46:49.782Z,102049.16
2023-01-13T13:49:22.288Z,102081.97
2023-01-13T13:52:00.378Z,102071.19
2023-01-13T13:54:29.847Z,102071.91
2023-01-13T13:56:59.607Z,102075.38
2023-01-13T13:59:31.082Z,102077.94
2023-01-13T14:02:04.201Z,102060.47
2023-01-13T14:04:37.381Z,102064.03
2023-01-13T14:07:18.772Z,102063.66
2023-01-13T14:09:50.011Z,102072.84
2023-01-13T14:12:21.445Z,102053.44
2023-01-13T14:14:51.315Z,102076.50
2023-01-13T14:17:27.392Z,102064.94
2023-01-13T14:20:01.095Z,102080.06
2023-01-13T14:22:30.637Z,102082.59
2023-01-13T14:25:01.064Z,102088.50
2023-01-13T14:27:32.133Z,102080.88
2023-01-13T14:30:02.771Z,102080.75
2023-01-13T14:32:36.809Z,102086.19
2023-01-13T14:35:17.467Z,102084.19
2023-01-13T14:37:49.404Z,102095.78
2023-01-13T14:40:48.296Z,102091.56
2023-01-13T14:43:22.155Z,102100.88
2023-01-13T14:46:03.030Z,102093.31
2023-01-13T14:48:36.490Z,102086.47
2023-01-13T14:51:11.430Z,102100.97
2023-01-13T14:53:46.765Z,102092.31
2023-01-13T14:56:43.208Z,102091.44
2023-01-13T14:59:48.973Z,102108.38
2023-01-13T15:02:49.536Z,101911.94
2023-01-13T15:05:40.270Z,102044.28
2023-01-13T15:08:30.418Z,102074.31
2023-01-13T15:11:04.487Z,102072.53
2023-01-13T15:13:39.665Z,101981.44
2023-01-13T15:16:18.234Z,101952.41
2023-01-13T15:18:47.977Z,102114.78
2023-01-13T15:21:17.987Z,102133.75
2023-01-13T15:23:49.029Z,102105.41
2023-01-13T15:26:22.403Z,102111.34
2023-01-13T15:28:53.404Z,102129.41
2023-01-13T15:31:22.930Z,102067.84
2023-01-13T15:33:52.509Z,102102.59
2023-01-13T15:36:25.466Z,101982.19
2023-01-13T15:38:56.755Z,102069.50
2023-01-13T15:41:48.999Z,102077.50
2023-01-13T15:44:35.665Z,101920.72
2023-01-13T15:47:09.929Z,102138.84
2023-01-13T15:49:42.010Z,101961.81
2023-01-13T15:52:22.003Z,102162.19
2023-01-13T15:54:53.667Z,102132.88
2023-01-13T15:57:25.919Z,102145.50
2023-01-13T15:59:57.829Z,101979.88
2023-01-13T16:02:27.157Z,102127.56
2023-01-13T16:04:56.343Z,101919.69
2023-01-13T16:07:27.360Z,102083.00
2023-01-13T16:09:58.277Z,102149.94
2023-01-13T16:12:27.464Z,102022.16
2023-01-13T16:14:56.787Z,101987.75
2023-01-13T16:17:30.183Z,102047.59
2023-01-13T16:19:59.511Z,102146.00
2023-01-13T16:22:28.947Z,102167.03
2023-01-13T16:24:59.954Z,102152.25
2023-01-13T16:27:29.260Z,102001.00
2023-01-13T16:29:58.567Z,102140.00
2023-01-13T16:32:27.786Z,102049.63
2023-01-13T16:34:58.323Z,102108.59
2023-01-13T16:37:30.209Z,102091.94
2023-01-13T16:40:01.733Z,102177.22
2023-01-13T16:42:31.083Z,102125.53
2023-01-13T16:45:07.347Z,102168.56
2023-01-13T16:47:37.839Z,102124.50
2023-01-13T16:50:07.903Z,102152.53
2023-01-13T16:52:37.179Z,102107.25
2023-01-13T16:55:08.188Z,102115.31
2023-01-13T16:57:37.519Z,102141.69
2023-01-13T17:00:07.296Z,102180.53
2023-01-13T17:02:36.601Z,102113.44
2023-01-13T17:05:06.605Z,102178.50
2023-01-13T17:07:35.859Z,102026.72
2023-01-13T17:10:05.745Z,101977.34
2023-01-13T17:12:36.615Z,102135.16
2023-01-13T17:15:06.337Z,102175.19
2023-01-13T17:17:35.695Z,102097.88
2023-01-13T17:20:05.202Z,102177.09
2023-01-13T17:22:34.456Z,102209.06
2023-01-13T17:25:03.758Z,101988.94
2023-01-13T17:27:33.223Z,102090.13
2023-01-13T17:30:06.315Z,102045.19
2023-01-13T17:32:35.563Z,102149.81
2023-01-13T17:35:06.401Z,102091.91
2023-01-13T17:37:35.723Z,102192.25
2023-01-13T17:40:04.953Z,101999.47
2023-01-13T17:42:34.335Z,102026.09
2023-01-13T17:45:05.210Z,101971.84
2023-01-13T17:47:34.492Z,102070.50
2023-01-13T17:50:04.462Z,102117.47
2023-01-13T17:52:33.767Z,102025.09
2023-01-13T17:55:03.023Z,102135.16
2023-01-13T17:57:32.432Z,102090.75
2023-01-13T18:00:01.752Z,102110.72
2023-01-13T18:02:33.835Z,102101.06
2023-01-13T18:05:03.156Z,102125.22
2023-01-13T18:07:32.451Z,102023.03
2023-01-13T18:10:01.656Z,102103.06
2023-01-13T18:12:31.021Z,102124.72
2023-01-13T18:15:00.256Z,102152.94
2023-01-13T18:17:29.580Z,102153.09
2023-01-13T18:20:17.133Z,102010.06
2023-01-13T18:23:03.407Z,102073.53
2023-01-13T18:25:49.786Z,102051.41
2023-01-13T18:28:19.072Z,102164.72
2023-01-13T18:30:49.762Z,102107.63
2023-01-13T18:33:19.115Z,102109.44
2023-01-13T18:35:49.841Z,102001.13
2023-01-13T18:38:20.627Z,102013.34
2023-01-13T18:40:49.877Z,102154.00
2023-01-13T18:43:18.062Z,102186.47
2023-01-13T18:45:52.765Z,102105.84
2023-01-13T18:48:22.055Z,102133.13
2023-01-13T18:50:52.831Z,102169.94
2023-01-13T18:53:22.136Z,101979.25
2023-01-13T18:55:51.324Z,102136.56
2023-01-13T18:58:22.223Z,102080.25
2023-01-13T19:00:51.432Z,102146.75
2023-01-13T19:03:29.933Z,102162.44
2023-01-13T19:06:08.667Z,102037.53
2023-01-13T19:08:37.912Z,102092.06
2023-01-13T19:11:07.753Z,102182.50
2023-01-13T19:13:37.835Z,102076.06
2023-01-13T19:16:08.289Z,102151.72
2023-01-13T19:18:38.793Z,101919.06
2023-01-13T19:21:09.686Z,102038.19
2023-01-13T19:23:39.349Z,101991.06
2023-01-13T19:26:10.749Z,102024.66
2023-01-13T19:28:40.872Z,102109.16
2023-01-13T19:31:12.455Z,102203.94
2023-01-13T19:33:42.338Z,102115.53
2023-01-13T19:36:13.760Z,102138.34
2023-01-13T19:38:43.040Z,102139.88
2023-01-13T19:41:40.008Z,102197.94
2023-01-13T19:44:29.584Z,102155.50
2023-01-13T19:46:58.987Z,101982.78
2023-01-13T19:49:28.221Z,101993.34
2023-01-13T19:51:58.930Z,102058.75
2023-01-13T19:54:28.164Z,102050.91
2023-01-13T19:56:57.519Z,102148.53
2023-01-13T19:59:29.721Z,102001.13
2023-01-13T20:01:59.395Z,101959.78
2023-01-13T20:04:34.246Z,102121.09
2023-01-13T20:07:05.144Z,102127.47
2023-01-13T20:09:35.950Z,102000.63
2023-01-13T20:12:07.618Z,102057.50
2023-01-13T20:14:36.931Z,102054.66
2023-01-13T20:17:06.384Z,102098.03
2023-01-13T20:19:35.995Z,102123.13
2023-01-13T20:22:07.457Z,102192.00
2023-01-13T20:24:37.383Z,102120.31
2023-01-13T20:27:07.168Z,102051.59
2023-01-13T20:29:36.734Z,102111.16
2023-01-13T20:32:06.423Z,102113.16
2023-01-13T20:34:35.852Z,102081.22
2023-01-13T20:37:06.653Z,102185.47
2023-01-13T20:39:36.459Z,102138.13
2023-01-13T20:42:34.513Z,102166.16
2023-01-13T20:45:03.820Z,102150.28
2023-01-13T20:47:33.444Z,102110.25
2023-01-13T20:50:02.821Z,102060.97
2023-01-13T20:52:33.631Z,102025.84
2023-01-13T20:55:02.898Z,102141.44
2023-01-13T20:57:32.166Z,102101.50
2023-01-13T21:00:01.511Z,101979.81
2023-01-13T21:02:30.853Z,102153.38
2023-01-13T21:05:00.116Z,102026.53
2023-01-13T21:07:29.297Z,102216.34
2023-01-13T21:10:00.052Z,102180.44
2023-01-13T21:12:46.368Z,102206.91
2023-01-13T21:15:22.407Z,102128.94
2023-01-13T21:18:10.497Z,102187.53
2023-01-13T21:20:40.524Z,102001.47
2023-01-13T21:23:11.198Z,102198.34
2023-01-13T21:25:42.034Z,102111.88
2023-01-13T21:28:12.572Z,102130.34
2023-01-13T21:30:42.076Z,102167.41
2023-01-13T21:33:14.809Z,102093.69
2023-01-13T21:35:44.107Z,101954.53
2023-01-13T21:38:14.075Z,102043.44
2023-01-13T21:40:44.826Z,101994.00
2023-01-13T21:43:32.212Z,102187.34
2023-01-13T21:46:32.861Z,102004.06
2023-01-13T21:49:02.221Z,102197.16
2023-01-13T21:51:31.927Z,102131.78
2023-01-13T21:54:01.465Z,101995.81
2023-01-13T21:56:32.235Z,102075.91
2023-01-13T21:59:01.468Z,101982.47
2023-01-13T22:01:30.872Z,102096.44
2023-01-13T22:04:14.975Z,102159.53
2023-01-13T22:06:44.287Z,102179.47
2023-01-13T22:09:13.963Z,102106.59
2023-01-13T22:11:44.680Z,102036.91
2023-01-13T22:14:14.518Z,102164.81
2023-01-13T22:16:50.034Z,102002.53
2023-01-13T22:19:20.097Z,102045.69
2023-01-13T22:21:49.355Z,102157.59
2023-01-13T22:24:18.709Z,102022.78
2023-01-13T22:26:49.540Z,102130.69
2023-01-13T22:29:18.968Z,102182.03
2023-01-13T22:31:48.335Z,101976.34
2023-01-13T22:34:17.573Z,102055.56
2023-01-13T22:36:46.876Z,102154.16
2023-01-13T22:39:16.134Z,101993.75
2023-01-13T22:41:45.348Z,102026.28
2023-01-13T22:44:16.116Z,101968.44
2023-01-13T22:46:45.397Z,102158.56
2023-01-13T22:49:15.820Z,102180.34
2023-01-13T22:51:45.568Z,102057.78
2023-01-13T22:54:15.668Z,102160.59
2023-01-13T22:56:45.202Z,101950.25
2023-01-13T22:59:16.611Z,101947.81
2023-01-13T23:01:46.225Z,101985.63
2023-01-13T23:04:15.531Z,101978.56
2023-01-13T23:06:44.907Z,102140.78
2023-01-13T23:09:15.617Z,102138.22
2023-01-13T23:11:46.770Z,102160.53
2023-01-13T23:14:18.557Z,102020.00
2023-01-13T23:16:48.665Z,101949.00
2023-01-13T23:19:18.012Z,102071.88
2023-01-13T23:21:47.331Z,101980.81
2023-01-13T23:24:16.636Z,101998.63
2023-01-13T23:26:45.947Z,101928.47
2023-01-13T23:29:15.582Z,102005.63
2023-01-13T23:31:46.375Z,102142.53
2023-01-13T23:34:15.700Z,102027.34
2023-01-13T23:36:44.899Z,102169.84
2023-01-13T23:39:14.174Z,102072.53
2023-01-13T23:41:43.429Z,102071.31
2023-01-13T23:44:12.695Z,101918.00
2023-01-13T23:46:41.921Z,102132.72
2023-01-13T23:49:12.752Z,101935.25
2023-01-13T23:51:42.191Z,101963.16
2023-01-13T23:54:11.487Z,102049.16
2023-01-13T23:56:40.935Z,101941.22
2023-01-13T23:59:10.204Z,102129.69
